createdAt,value
2022-08-31T00:00:31.619Z,1.13
2022-08-31T00:03:16.739Z,1.10
2022-08-31T00:05:43.877Z,1.17
2022-08-31T00:08:10.897Z,1.13
2022-08-31T00:10:40.664Z,0.90
2022-08-31T00:13:10.245Z,1.00
2022-08-31T00:15:37.304Z,1.10
2022-08-31T00:18:06.221Z,0.83
2022-08-31T00:20:34.942Z,1.77
2022-08-31T00:23:02.462Z,1.10
2022-08-31T00:25:29.434Z,1.20
2022-08-31T00:27:56.464Z,1.10
2022-08-31T00:30:24.249Z,1.20
2022-08-31T00:32:51.581Z,1.20
2022-08-31T00:35:19.450Z,1.00
2022-08-31T00:37:46.500Z,1.07
2022-08-31T00:40:13.786Z,0.93
2022-08-31T00:42:40.941Z,1.07
2022-08-31T00:45:09.799Z,1.60
2022-08-31T00:47:37.642Z,1.03
2022-08-31T00:50:06.643Z,1.40
2022-08-31T00:52:37.767Z,1.30
2022-08-31T00:55:09.380Z,1.03
2022-08-31T00:57:39.400Z,1.13
2022-08-31T01:00:09.904Z,1.23
2022-08-31T01:02:37.901Z,1.13
2022-08-31T01:05:05.694Z,1.30
2022-08-31T01:07:32.908Z,1.50
2022-08-31T01:10:00.474Z,1.47
2022-08-31T01:12:28.654Z,1.20
2022-08-31T01:14:55.936Z,1.40
2022-08-31T01:17:23.498Z,1.10
2022-08-31T01:19:58.854Z,1.13
2022-08-31T01:22:34.994Z,1.00
2022-08-31T01:25:02.915Z,1.10
2022-08-31T01:27:33.655Z,1.30
2022-08-31T01:30:01.067Z,1.43
2022-08-31T01:32:28.037Z,1.10
2022-08-31T01:34:57.296Z,1.50
2022-08-31T01:37:29.472Z,1.27
2022-08-31T01:39:57.667Z,1.10
2022-08-31T01:42:33.295Z,1.33
2022-08-31T01:45:01.425Z,1.10
2022-08-31T01:47:28.389Z,1.00
2022-08-31T01:49:57.698Z,1.40
2022-08-31T01:52:27.718Z,1.10
2022-08-31T01:54:55.093Z,1.20
2022-08-31T01:57:33.788Z,1.23
2022-08-31T02:00:03.068Z,1.30
2022-08-31T02:02:30.211Z,1.43
2022-08-31T02:04:58.291Z,1.23
2022-08-31T02:07:25.326Z,1.50
2022-08-31T02:09:53.500Z,1.17
2022-08-31T02:12:20.525Z,1.13
2022-08-31T02:14:47.570Z,1.27
2022-08-31T02:17:14.984Z,1.20
2022-08-31T02:19:41.731Z,1.10
2022-08-31T02:22:08.743Z,1.20
2022-08-31T02:24:35.697Z,1.40
2022-08-31T02:27:02.678Z,1.37
2022-08-31T02:29:29.724Z,1.20
2022-08-31T02:31:57.893Z,1.30
2022-08-31T02:34:25.743Z,1.10
2022-08-31T02:36:52.717Z,1.60
2022-08-31T02:39:19.765Z,1.20
2022-08-31T02:41:47.421Z,1.07
2022-08-31T02:44:14.666Z,1.00
2022-08-31T02:46:43.004Z,1.20
2022-08-31T02:49:10.027Z,1.40
2022-08-31T02:51:40.416Z,1.33
2022-08-31T02:54:07.528Z,1.23
2022-08-31T02:56:34.567Z,1.10
2022-08-31T02:59:01.493Z,1.30
2022-08-31T03:01:28.587Z,1.40
2022-08-31T03:03:55.681Z,1.60
2022-08-31T03:06:22.984Z,1.67
2022-08-31T03:08:50.643Z,1.30
2022-08-31T03:11:18.983Z,1.13
2022-08-31T03:13:46.036Z,1.50
2022-08-31T03:16:15.057Z,1.17
2022-08-31T03:18:42.169Z,1.40
2022-08-31T03:21:09.188Z,1.20
2022-08-31T03:23:36.242Z,1.57
2022-08-31T03:26:05.013Z,1.30
2022-08-31T03:28:32.069Z,1.40
2022-08-31T03:30:59.133Z,1.37
2022-08-31T03:33:26.185Z,1.23
2022-08-31T03:35:53.288Z,1.57
2022-08-31T03:38:22.880Z,1.40
2022-08-31T03:40:50.247Z,1.27
2022-08-31T03:43:17.767Z,1.30
2022-08-31T03:45:44.958Z,1.50
2022-08-31T03:48:12.998Z,1.30
2022-08-31T03:50:40.496Z,1.83
2022-08-31T03:53:08.508Z,1.43
2022-08-31T03:55:38.528Z,1.57
2022-08-31T03:58:05.983Z,1.50
2022-08-31T04:00:34.582Z,1.37
2022-08-31T04:03:01.814Z,1.77
2022-08-31T04:05:29.058Z,2.53
2022-08-31T04:07:56.357Z,1.50
2022-08-31T04:10:23.130Z,1.73
2022-08-31T04:12:50.461Z,1.60
2022-08-31T04:15:18.800Z,1.50
2022-08-31T04:17:47.884Z,1.50
2022-08-31T04:20:16.711Z,1.30
2022-08-31T04:22:43.500Z,1.57
2022-08-31T04:25:10.639Z,1.80
2022-08-31T04:27:37.934Z,1.70
2022-08-31T04:30:08.372Z,1.40
2022-08-31T04:32:35.512Z,1.60
2022-08-31T04:35:03.451Z,1.67
2022-08-31T04:37:30.476Z,1.60
2022-08-31T04:39:59.199Z,1.60
2022-08-31T04:42:26.657Z,1.60
2022-08-31T04:44:53.620Z,1.60
2022-08-31T04:47:20.605Z,1.60
2022-08-31T04:49:47.929Z,1.53
2022-08-31T04:52:15.678Z,1.77
2022-08-31T04:54:42.685Z,1.20
2022-08-31T04:57:10.059Z,2.13
2022-08-31T04:59:37.135Z,1.40
2022-08-31T05:02:04.337Z,1.70
2022-08-31T05:04:31.492Z,1.13
2022-08-31T05:06:58.490Z,1.50
2022-08-31T05:09:26.478Z,1.30
2022-08-31T05:11:54.606Z,1.50
2022-08-31T05:14:22.765Z,1.33
2022-08-31T05:16:50.714Z,1.20
2022-08-31T05:19:17.879Z,1.37
2022-08-31T05:21:45.090Z,1.27
2022-08-31T05:24:14.048Z,1.20
2022-08-31T05:26:44.481Z,1.20
2022-08-31T05:29:13.449Z,1.40
2022-08-31T05:31:40.585Z,1.00
2022-08-31T05:34:07.905Z,1.03
2022-08-31T05:36:35.121Z,1.03
2022-08-31T05:39:02.249Z,1.20
2022-08-31T05:41:29.759Z,0.90
2022-08-31T05:43:57.642Z,1.33
2022-08-31T05:46:24.668Z,1.43
2022-08-31T05:48:51.748Z,1.10
2022-08-31T05:51:19.149Z,1.07
2022-08-31T05:53:46.806Z,1.10
2022-08-31T05:56:16.074Z,1.30
2022-08-31T05:58:47.156Z,1.17
2022-08-31T06:01:17.031Z,0.90
2022-08-31T06:03:44.217Z,0.97
2022-08-31T06:06:11.317Z,1.30
2022-08-31T06:08:38.556Z,1.33
2022-08-31T06:11:06.505Z,1.30
2022-08-31T06:13:33.703Z,1.00
2022-08-31T06:16:03.171Z,0.70
2022-08-31T06:18:30.881Z,1.10
2022-08-31T06:21:08.439Z,0.70
2022-08-31T06:23:36.116Z,1.00
2022-08-31T06:26:05.522Z,0.70
2022-08-31T06:28:32.820Z,0.90
2022-08-31T06:31:00.960Z,0.90
2022-08-31T06:33:28.561Z,0.93
2022-08-31T06:35:56.226Z,1.10
2022-08-31T06:38:23.347Z,0.70
2022-08-31T06:40:50.477Z,1.00
2022-08-31T06:43:17.608Z,0.83
2022-08-31T06:45:44.874Z,0.73
2022-08-31T06:48:11.870Z,0.60
2022-08-31T06:50:40.677Z,0.70
2022-08-31T06:53:08.968Z,0.80
2022-08-31T06:55:36.308Z,0.60
2022-08-31T06:58:03.630Z,0.77
2022-08-31T07:00:32.991Z,0.60
2022-08-31T07:03:21.532Z,0.90
2022-08-31T07:05:48.652Z,0.70
2022-08-31T07:08:16.572Z,0.90
2022-08-31T07:10:43.824Z,1.57
2022-08-31T07:13:10.812Z,0.63
2022-08-31T07:15:37.871Z,0.70
2022-08-31T07:18:08.392Z,0.80
2022-08-31T07:20:37.117Z,0.70
2022-08-31T07:23:04.653Z,0.90
2022-08-31T07:25:32.076Z,0.63
2022-08-31T07:27:59.772Z,0.40
2022-08-31T07:30:29.075Z,0.80
2022-08-31T07:33:06.390Z,0.40
2022-08-31T07:35:33.486Z,0.90
2022-08-31T07:38:18.713Z,0.43
2022-08-31T07:41:04.321Z,0.50
2022-08-31T07:43:36.132Z,0.70
2022-08-31T07:46:03.583Z,0.70
2022-08-31T07:48:32.709Z,0.80
2022-08-31T07:51:00.624Z,1.53
2022-08-31T07:53:27.961Z,0.50
2022-08-31T07:55:56.055Z,0.67
2022-08-31T07:58:24.668Z,0.60
2022-08-31T08:00:51.624Z,0.70
2022-08-31T08:03:19.558Z,0.60
2022-08-31T08:05:46.834Z,0.60
2022-08-31T08:08:15.783Z,0.60
2022-08-31T08:10:51.884Z,0.47
2022-08-31T08:13:20.811Z,0.70
2022-08-31T08:15:50.073Z,0.90
2022-08-31T08:18:18.656Z,0.40
2022-08-31T08:20:45.997Z,0.70
2022-08-31T08:23:15.620Z,0.60
2022-08-31T08:25:45.453Z,0.40
2022-08-31T08:28:35.886Z,0.43
2022-08-31T08:31:05.392Z,0.33
2022-08-31T08:33:34.660Z,0.80
2022-08-31T08:36:04.080Z,0.80
2022-08-31T08:38:31.645Z,0.60
2022-08-31T08:40:59.792Z,0.63
2022-08-31T08:43:31.908Z,0.50
2022-08-31T08:46:06.862Z,0.40
2022-08-31T08:48:55.422Z,0.50
2022-08-31T08:51:31.147Z,0.27
2022-08-31T08:54:07.107Z,0.30
2022-08-31T08:56:41.350Z,0.47
2022-08-31T08:59:14.691Z,0.40
2022-08-31T09:01:46.511Z,0.60
2022-08-31T09:04:25.502Z,0.80
2022-08-31T09:07:11.115Z,0.77
2022-08-31T09:09:41.840Z,0.60
2022-08-31T09:12:24.122Z,0.40
2022-08-31T09:15:16.301Z,0.70
2022-08-31T09:17:59.178Z,0.43
2022-08-31T09:20:27.626Z,0.30
2022-08-31T09:22:56.531Z,0.30
2022-08-31T09:25:32.435Z,0.70
2022-08-31T09:28:01.758Z,0.50
2022-08-31T09:30:45.632Z,0.60
2022-08-31T09:33:19.733Z,1.47
2022-08-31T09:35:48.510Z,0.70
2022-08-31T09:38:27.398Z,0.70
2022-08-31T09:40:54.474Z,0.70
2022-08-31T09:43:29.887Z,0.60
2022-08-31T09:46:06.576Z,0.70
2022-08-31T09:48:50.730Z,0.70
2022-08-31T09:51:25.624Z,0.70
2022-08-31T09:54:11.902Z,0.53
2022-08-31T09:56:54.766Z,0.57
2022-08-31T09:59:34.323Z,0.70
2022-08-31T10:02:02.188Z,1.20
2022-08-31T10:04:37.356Z,0.80
2022-08-31T10:07:14.516Z,0.63
2022-08-31T10:09:46.592Z,0.80
2022-08-31T10:12:21.935Z,0.50
2022-08-31T10:14:53.464Z,0.60
2022-08-31T10:17:32.048Z,0.50
2022-08-31T10:20:05.897Z,0.67
2022-08-31T10:22:41.365Z,1.33
2022-08-31T10:25:14.970Z,0.73
2022-08-31T10:27:47.928Z,0.40
2022-08-31T10:30:28.394Z,0.50
2022-08-31T10:33:03.625Z,0.60
2022-08-31T10:35:37.036Z,0.60
2022-08-31T10:38:20.158Z,0.50
2022-08-31T10:40:52.104Z,0.60
2022-08-31T10:43:23.126Z,0.40
2022-08-31T10:45:53.167Z,0.50
2022-08-31T10:48:22.175Z,0.47
2022-08-31T10:51:05.078Z,0.60
2022-08-31T10:53:46.513Z,0.50
2022-08-31T10:56:20.311Z,0.60
2022-08-31T10:59:10.488Z,0.70
2022-08-31T11:01:48.839Z,0.50
2022-08-31T11:04:48.590Z,0.60
2022-08-31T11:07:30.146Z,0.70
2022-08-31T11:10:07.035Z,0.40
2022-08-31T11:12:41.907Z,0.60
2022-08-31T11:15:43.293Z,0.90
2022-08-31T11:18:41.894Z,0.67
2022-08-31T11:21:46.869Z,0.67
2022-08-31T11:24:59.698Z,0.40
2022-08-31T11:27:32.831Z,0.60
2022-08-31T11:30:07.461Z,0.60
2022-08-31T11:32:41.375Z,0.60
2022-08-31T11:35:10.007Z,0.60
2022-08-31T11:37:55.313Z,0.60
2022-08-31T11:41:10.421Z,0.50
2022-08-31T11:44:00.696Z,0.40
2022-08-31T11:46:42.306Z,0.50
2022-08-31T11:49:10.554Z,0.50
2022-08-31T11:51:45.493Z,0.50
2022-08-31T11:54:14.412Z,0.50
2022-08-31T11:56:46.709Z,0.57
2022-08-31T11:59:25.619Z,0.60
2022-08-31T12:01:54.570Z,0.70
2022-08-31T12:04:59.643Z,0.70
2022-08-31T12:07:30.276Z,0.70
2022-08-31T12:10:28.999Z,0.50
2022-08-31T12:13:18.800Z,0.93
2022-08-31T12:16:11.629Z,0.50
2022-08-31T12:18:58.954Z,0.77
2022-08-31T12:21:52.847Z,0.73
2022-08-31T12:24:32.571Z,0.53
2022-08-31T12:27:10.553Z,0.50
2022-08-31T12:29:38.997Z,0.50
2022-08-31T12:32:27.122Z,0.63
2022-08-31T12:35:11.574Z,0.80
2022-08-31T12:37:39.665Z,0.50
2022-08-31T12:40:18.799Z,0.60
2022-08-31T12:42:56.191Z,0.60
2022-08-31T12:45:42.795Z,0.57
2022-08-31T12:48:22.742Z,0.47
2022-08-31T12:50:58.090Z,0.40
2022-08-31T12:53:45.378Z,0.77
2022-08-31T12:56:17.559Z,0.60
2022-08-31T12:59:03.156Z,0.47
2022-08-31T13:01:30.458Z,0.50
2022-08-31T13:04:01.718Z,0.60
2022-08-31T13:06:30.634Z,0.50
2022-08-31T13:08:59.092Z,0.70
2022-08-31T13:11:35.468Z,0.57
2022-08-31T13:14:14.503Z,0.50
2022-08-31T13:16:44.244Z,0.50
2022-08-31T13:19:23.372Z,0.50
2022-08-31T13:21:52.233Z,0.50
2022-08-31T13:24:26.352Z,0.50
2022-08-31T13:27:03.894Z,0.47
2022-08-31T13:29:42.331Z,0.50
2022-08-31T13:32:09.297Z,0.77
2022-08-31T13:34:41.435Z,0.63
2022-08-31T13:37:14.494Z,0.60
2022-08-31T13:39:45.384Z,0.50
2022-08-31T13:42:33.545Z,0.57
2022-08-31T13:45:07.497Z,0.70
2022-08-31T13:47:55.261Z,0.73
2022-08-31T13:50:27.951Z,0.50
2022-08-31T13:53:24.825Z,0.73
2022-08-31T13:55:48.488Z,0.50
2022-08-31T13:58:30.428Z,0.50
2022-08-31T14:01:18.864Z,0.80
2022-08-31T14:03:56.403Z,0.50
2022-08-31T14:06:26.007Z,0.63
2022-08-31T14:08:55.871Z,0.67
2022-08-31T14:11:27.793Z,0.60
2022-08-31T14:13:54.832Z,0.50
2022-08-31T14:16:31.905Z,0.40
2022-08-31T14:19:00.575Z,0.57
2022-08-31T14:21:30.859Z,0.50
2022-08-31T14:24:01.973Z,0.73
2022-08-31T14:26:31.418Z,0.57
2022-08-31T14:29:00.589Z,0.63
2022-08-31T14:31:32.251Z,0.53
2022-08-31T14:34:19.676Z,0.87
2022-08-31T14:36:52.486Z,0.50
2022-08-31T14:39:26.583Z,0.60
2022-08-31T14:41:55.257Z,0.50
2022-08-31T14:44:25.048Z,0.40
2022-08-31T14:46:52.685Z,0.37
2022-08-31T14:49:19.775Z,0.53
2022-08-31T14:51:47.450Z,0.43
2022-08-31T14:54:16.246Z,0.77
2022-08-31T14:56:47.324Z,0.50
2022-08-31T14:59:16.272Z,0.60
2022-08-31T15:01:44.176Z,0.63
2022-08-31T15:04:12.656Z,0.47
2022-08-31T15:06:39.822Z,0.63
2022-08-31T15:09:07.787Z,1.10
2022-08-31T15:11:39.261Z,0.70
2022-08-31T15:14:11.707Z,1.13
2022-08-31T15:16:43.661Z,0.70
2022-08-31T15:19:12.833Z,0.53
2022-08-31T15:21:44.481Z,0.63
2022-08-31T15:24:13.981Z,0.67
2022-08-31T15:26:43.464Z,0.60
2022-08-31T15:29:13.110Z,0.60
2022-08-31T15:31:47.622Z,0.50
2022-08-31T15:34:20.302Z,0.50
2022-08-31T15:36:54.474Z,0.50
2022-08-31T15:39:22.693Z,0.57
2022-08-31T15:41:49.982Z,0.80
2022-08-31T15:44:19.611Z,0.70
2022-08-31T15:47:05.070Z,0.60
2022-08-31T15:49:33.389Z,0.80
2022-08-31T15:52:00.296Z,4.37
2022-08-31T15:54:33.446Z,0.87
2022-08-31T15:57:01.663Z,0.60
2022-08-31T15:59:28.669Z,0.53
2022-08-31T16:01:55.883Z,0.60
2022-08-31T16:04:23.088Z,0.60
2022-08-31T16:06:51.119Z,0.40
2022-08-31T16:09:19.850Z,0.80
2022-08-31T16:11:48.365Z,0.60
2022-08-31T16:14:16.174Z,0.57
2022-08-31T16:16:45.305Z,0.67
2022-08-31T16:19:33.378Z,0.60
2022-08-31T16:22:02.408Z,0.83
2022-08-31T16:24:36.412Z,0.43
2022-08-31T16:27:05.526Z,0.73
2022-08-31T16:29:32.748Z,0.60
2022-08-31T16:31:59.679Z,0.60
2022-08-31T16:34:27.868Z,0.60
2022-08-31T16:36:56.357Z,0.63
2022-08-31T16:39:27.503Z,0.70
2022-08-31T16:41:55.127Z,0.70
2022-08-31T16:44:22.549Z,0.73
2022-08-31T16:46:49.606Z,0.60
2022-08-31T16:49:35.867Z,0.97
2022-08-31T16:52:05.240Z,0.67
2022-08-31T16:54:33.254Z,0.80
2022-08-31T16:57:00.309Z,0.60
2022-08-31T16:59:29.335Z,0.70
2022-08-31T17:01:56.481Z,0.63
2022-08-31T17:04:50.568Z,0.70
2022-08-31T17:07:14.015Z,0.60
2022-08-31T17:09:47.093Z,1.00
2022-08-31T17:12:18.443Z,0.87
2022-08-31T17:14:51.423Z,0.80
2022-08-31T17:17:20.774Z,1.67
2022-08-31T17:19:47.909Z,0.70
2022-08-31T17:22:23.316Z,0.67
2022-08-31T17:24:56.641Z,0.77
2022-08-31T17:27:24.319Z,0.83
2022-08-31T17:29:55.286Z,0.70
2022-08-31T17:32:24.429Z,0.90
2022-08-31T17:34:53.540Z,0.77
2022-08-31T17:37:25.214Z,0.80
2022-08-31T17:39:52.283Z,0.73
2022-08-31T17:42:20.193Z,0.88
2022-08-31T17:44:50.329Z,0.80
2022-08-31T17:47:19.662Z,0.90
2022-08-31T17:49:46.997Z,0.80
2022-08-31T17:52:14.095Z,0.80
2022-08-31T17:54:42.303Z,0.70
2022-08-31T17:57:11.658Z,0.80
2022-08-31T17:59:40.240Z,1.00
2022-08-31T18:02:09.482Z,1.03
2022-08-31T18:04:37.863Z,0.70
2022-08-31T18:07:05.213Z,1.13
2022-08-31T18:09:36.027Z,0.87
2022-08-31T18:12:03.479Z,1.10
2022-08-31T18:14:32.128Z,0.77
2022-08-31T18:17:00.955Z,0.90
2022-08-31T18:19:29.384Z,1.07
2022-08-31T18:21:57.128Z,0.80
2022-08-31T18:24:24.073Z,0.80
2022-08-31T18:26:51.747Z,0.93
2022-08-31T18:29:24.766Z,0.80
2022-08-31T18:31:53.149Z,0.77
2022-08-31T18:34:22.402Z,0.80
2022-08-31T18:36:50.547Z,1.10
2022-08-31T18:39:40.766Z,0.80
2022-08-31T18:42:26.183Z,0.83
2022-08-31T18:45:11.889Z,0.80
2022-08-31T18:47:38.909Z,0.80
2022-08-31T18:50:07.133Z,0.80
2022-08-31T18:52:51.939Z,0.70
2022-08-31T18:55:21.070Z,0.70
2022-08-31T18:57:51.674Z,0.80
2022-08-31T19:00:21.665Z,0.93
2022-08-31T19:02:49.552Z,0.80
2022-08-31T19:05:22.995Z,0.80
2022-08-31T19:07:53.536Z,0.80
2022-08-31T19:10:23.131Z,0.90
2022-08-31T19:12:51.312Z,0.90
2022-08-31T19:15:19.422Z,0.73
2022-08-31T19:17:48.958Z,0.83
2022-08-31T19:20:16.881Z,0.80
2022-08-31T19:22:44.470Z,0.83
2022-08-31T19:25:18.026Z,0.90
2022-08-31T19:27:50.668Z,0.80
2022-08-31T19:30:19.698Z,0.90
2022-08-31T19:32:48.698Z,0.90
2022-08-31T19:38:01.663Z,1.20
2022-08-31T19:40:37.792Z,0.97
2022-08-31T19:46:09.667Z,1.00
2022-08-31T19:49:01.527Z,0.83
2022-08-31T19:51:31.493Z,0.70
2022-08-31T19:54:03.748Z,0.80
2022-08-31T19:56:31.217Z,0.80
2022-08-31T19:59:10.195Z,0.87
2022-08-31T20:01:48.060Z,0.70
2022-08-31T20:04:16.909Z,0.97
2022-08-31T20:06:45.911Z,0.93
2022-08-31T20:09:17.085Z,0.60
2022-08-31T20:11:47.329Z,1.00
2022-08-31T20:14:15.834Z,0.83
2022-08-31T20:16:45.794Z,0.80
2022-08-31T20:19:20.913Z,0.80
2022-08-31T20:21:53.124Z,0.87
2022-08-31T20:24:25.637Z,0.80
2022-08-31T20:26:59.157Z,0.90
2022-08-31T20:29:28.649Z,0.70
2022-08-31T20:31:56.172Z,0.50
2022-08-31T20:34:27.740Z,0.70
2022-08-31T20:36:59.895Z,0.80
2022-08-31T20:39:31.507Z,0.80
2022-08-31T20:44:49.877Z,0.80
2022-08-31T20:47:35.874Z,0.70
2022-08-31T20:50:07.847Z,0.67
2022-08-31T20:52:35.085Z,0.80
2022-08-31T20:55:03.626Z,0.83
2022-08-31T20:57:31.625Z,0.73
2022-08-31T21:00:03.153Z,0.50
2022-08-31T21:02:33.388Z,0.80
2022-08-31T21:05:15.305Z,0.53
2022-08-31T21:07:47.779Z,0.73
2022-08-31T21:10:14.893Z,0.90
2022-08-31T21:12:44.393Z,0.60
2022-08-31T21:15:12.009Z,0.77
2022-08-31T21:17:40.201Z,0.80
2022-08-31T21:20:09.120Z,0.70
2022-08-31T21:22:37.279Z,0.70
2022-08-31T21:25:11.036Z,0.70
2022-08-31T21:27:38.168Z,0.80
2022-08-31T21:30:07.110Z,0.80
2022-08-31T21:32:37.953Z,0.70
2022-08-31T21:35:05.344Z,0.77
2022-08-31T21:37:34.232Z,0.60
2022-08-31T21:40:01.300Z,0.77
2022-08-31T21:42:29.539Z,0.60
2022-08-31T21:44:56.536Z,0.70
2022-08-31T21:47:23.520Z,0.70
2022-08-31T21:49:53.183Z,1.00
2022-08-31T21:52:20.289Z,0.70
2022-08-31T21:54:47.354Z,0.60
2022-08-31T21:57:15.684Z,0.77
2022-08-31T21:59:42.724Z,0.70
2022-08-31T22:02:11.310Z,0.60
2022-08-31T22:04:40.723Z,0.80
2022-08-31T22:07:08.835Z,0.63
2022-08-31T22:09:36.661Z,0.67
2022-08-31T22:12:06.684Z,0.77
2022-08-31T22:14:36.548Z,0.70
2022-08-31T22:17:06.270Z,0.70
2022-08-31T22:19:35.652Z,0.73
2022-08-31T22:22:05.333Z,0.80
2022-08-31T22:24:35.328Z,0.67
2022-08-31T22:27:08.253Z,0.70
2022-08-31T22:29:37.114Z,0.70
2022-08-31T22:32:08.283Z,0.60
2022-08-31T22:34:35.486Z,0.70
2022-08-31T22:37:03.881Z,0.60
2022-08-31T22:39:31.156Z,0.77
2022-08-31T22:42:00.677Z,0.70
2022-08-31T22:48:15.257Z,0.63
2022-08-31T22:50:42.309Z,0.70
2022-08-31T22:53:09.518Z,0.80
2022-08-31T22:55:37.411Z,0.80
2022-08-31T22:58:04.998Z,0.90
2022-08-31T23:00:40.620Z,0.60
2022-08-31T23:03:14.235Z,0.70
2022-08-31T23:05:43.311Z,0.80
2022-08-31T23:08:10.595Z,0.80
2022-08-31T23:10:38.381Z,0.67
2022-08-31T23:13:05.963Z,0.60
2022-08-31T23:15:36.626Z,0.77
2022-08-31T23:18:03.684Z,0.70
2022-08-31T23:20:30.604Z,0.70
2022-08-31T23:22:59.282Z,0.63
2022-08-31T23:25:26.236Z,0.90
2022-08-31T23:27:53.977Z,0.70
2022-08-31T23:30:24.374Z,0.80
2022-08-31T23:32:52.872Z,0.90
2022-08-31T23:35:21.590Z,0.73
2022-08-31T23:37:49.287Z,0.80
2022-08-31T23:40:16.391Z,0.60
2022-08-31T23:42:43.362Z,0.63
2022-08-31T23:45:11.960Z,0.40
2022-08-31T23:47:39.344Z,0.50
2022-08-31T23:50:08.625Z,0.70
2022-08-31T23:52:40.602Z,0.63
2022-08-31T23:55:10.236Z,0.63
2022-08-31T23:57:37.366Z,0.57
